sensor_id;sensor_type;location;lat;lon;timestamp;P1;durP1;ratioP1;P2;durP2;ratioP2
47960;SDS011;33721;48.852;9.936;2023-10-13T00:01:33;20.80;;;9.63;;
47960;SDS011;33721;48.852;9.936;2023-10-13T00:03:59;22.27;;;9.93;;
47960;SDS011;33721;48.852;9.936;2023-10-13T00:06:30;21.13;;;9.98;;
47960;SDS011;33721;48.852;9.936;2023-10-13T00:08:56;18.27;;;9.90;;
47960;SDS011;33721;48.852;9.936;2023-10-13T00:11:21;21.73;;;10.02;;
47960;SDS011;33721;48.852;9.936;2023-10-13T00:13:47;23.48;;;10.38;;
47960;SDS011;33721;48.852;9.936;2023-10-13T00:16:19;21.27;;;10.07;;
47960;SDS011;33721;48.852;9.936;2023-10-13T00:18:52;24.77;;;9.90;;
47960;SDS011;33721;48.852;9.936;2023-10-13T00:21:23;20.67;;;9.30;;
47960;SDS011;33721;48.852;9.936;2023-10-13T00:23:58;19.95;;;9.43;;
47960;SDS011;33721;48.852;9.936;2023-10-13T00:26:31;18.90;;;10.05;;
47960;SDS011;33721;48.852;9.936;2023-10-13T00:29:01;25.73;;;10.50;;
47960;SDS011;33721;48.852;9.936;2023-10-13T00:31:39;23.08;;;10.82;;
47960;SDS011;33721;48.852;9.936;2023-10-13T00:34:07;21.92;;;10.30;;
47960;SDS011;33721;48.852;9.936;2023-10-13T00:36:46;18.42;;;9.52;;
47960;SDS011;33721;48.852;9.936;2023-10-13T00:39:34;18.25;;;9.27;;
47960;SDS011;33721;48.852;9.936;2023-10-13T00:42:13;18.67;;;9.55;;
47960;SDS011;33721;48.852;9.936;2023-10-13T00:44:50;22.20;;;9.52;;
47960;SDS011;33721;48.852;9.936;2023-10-13T00:47:19;23.70;;;9.88;;
47960;SDS011;33721;48.852;9.936;2023-10-13T00:50:01;24.67;;;10.70;;
47960;SDS011;33721;48.852;9.936;2023-10-13T00:52:28;24.38;;;10.63;;
47960;SDS011;33721;48.852;9.936;2023-10-13T00:54:55;19.88;;;9.50;;
47960;SDS011;33721;48.852;9.936;2023-10-13T00:57:24;20.35;;;9.43;;
47960;SDS011;33721;48.852;9.936;2023-10-13T00:59:57;17.45;;;9.68;;
47960;SDS011;33721;48.852;9.936;2023-10-13T01:02:24;18.08;;;9.65;;
47960;SDS011;33721;48.852;9.936;2023-10-13T01:05:05;19.75;;;10.07;;
47960;SDS011;33721;48.852;9.936;2023-10-13T01:07:35;21.13;;;10.20;;
47960;SDS011;33721;48.852;9.936;2023-10-13T01:10:02;24.85;;;10.18;;
47960;SDS011;33721;48.852;9.936;2023-10-13T01:12:29;22.05;;;10.05;;
47960;SDS011;33721;48.852;9.936;2023-10-13T01:14:56;24.55;;;10.13;;
47960;SDS011;33721;48.852;9.936;2023-10-13T01:17:22;19.02;;;9.75;;
47960;SDS011;33721;48.852;9.936;2023-10-13T01:19:49;22.02;;;9.48;;
47960;SDS011;33721;48.852;9.936;2023-10-13T01:22:14;21.95;;;10.30;;
47960;SDS011;33721;48.852;9.936;2023-10-13T01:24:40;21.98;;;9.93;;
47960;SDS011;33721;48.852;9.936;2023-10-13T01:27:06;24.40;;;9.55;;
47960;SDS011;33721;48.852;9.936;2023-10-13T01:29:53;21.08;;;9.60;;
47960;SDS011;33721;48.852;9.936;2023-10-13T01:32:24;19.70;;;9.85;;
47960;SDS011;33721;48.852;9.936;2023-10-13T01:34:50;21.38;;;10.27;;
47960;SDS011;33721;48.852;9.936;2023-10-13T01:37:20;24.35;;;10.10;;
47960;SDS011;33721;48.852;9.936;2023-10-13T01:39:47;20.25;;;9.18;;
47960;SDS011;33721;48.852;9.936;2023-10-13T01:42:14;23.83;;;10.65;;
47960;SDS011;33721;48.852;9.936;2023-10-13T01:44:44;22.77;;;9.77;;
47960;SDS011;33721;48.852;9.936;2023-10-13T01:47:10;19.33;;;9.10;;
47960;SDS011;33721;48.852;9.936;2023-10-13T01:49:37;21.60;;;9.27;;
47960;SDS011;33721;48.852;9.936;2023-10-13T01:52:23;19.08;;;10.18;;
47960;SDS011;33721;48.852;9.936;2023-10-13T01:54:50;23.00;;;9.45;;
47960;SDS011;33721;48.852;9.936;2023-10-13T01:57:16;20.02;;;9.35;;
47960;SDS011;33721;48.852;9.936;2023-10-13T01:59:46;21.17;;;9.77;;
47960;SDS011;33721;48.852;9.936;2023-10-13T02:02:13;24.80;;;10.00;;
47960;SDS011;33721;48.852;9.936;2023-10-13T02:04:39;20.77;;;9.68;;
47960;SDS011;33721;48.852;9.936;2023-10-13T02:07:16;21.33;;;9.23;;
47960;SDS011;33721;48.852;9.936;2023-10-13T02:09:42;19.13;;;9.10;;
47960;SDS011;33721;48.852;9.936;2023-10-13T02:12:08;18.42;;;9.63;;
47960;SDS011;33721;48.852;9.936;2023-10-13T02:14:37;18.33;;;8.85;;
47960;SDS011;33721;48.852;9.936;2023-10-13T02:17:03;17.65;;;9.23;;
47960;SDS011;33721;48.852;9.936;2023-10-13T02:19:48;19.98;;;9.77;;
47960;SDS011;33721;48.852;9.936;2023-10-13T02:22:19;24.73;;;10.15;;
47960;SDS011;33721;48.852;9.936;2023-10-13T02:24:53;18.27;;;9.63;;
47960;SDS011;33721;48.852;9.936;2023-10-13T02:27:26;22.20;;;10.50;;
47960;SDS011;33721;48.852;9.936;2023-10-13T02:29:52;22.70;;;9.13;;
47960;SDS011;33721;48.852;9.936;2023-10-13T02:32:23;21.10;;;9.52;;
47960;SDS011;33721;48.852;9.936;2023-10-13T02:34:49;18.65;;;8.55;;
47960;SDS011;33721;48.852;9.936;2023-10-13T02:37:15;20.95;;;9.85;;
47960;SDS011;33721;48.852;9.936;2023-10-13T02:39:44;22.98;;;9.80;;
47960;SDS011;33721;48.852;9.936;2023-10-13T02:42:09;17.08;;;9.15;;
47960;SDS011;33721;48.852;9.936;2023-10-13T02:44:48;19.00;;;9.43;;
47960;SDS011;33721;48.852;9.936;2023-10-13T02:47:20;17.60;;;9.32;;
47960;SDS011;33721;48.852;9.936;2023-10-13T02:49:49;17.35;;;9.02;;
47960;SDS011;33721;48.852;9.936;2023-10-13T02:52:14;23.75;;;9.95;;
47960;SDS011;33721;48.852;9.936;2023-10-13T02:54:40;20.27;;;9.18;;
47960;SDS011;33721;48.852;9.936;2023-10-13T02:57:15;18.17;;;9.23;;
47960;SDS011;33721;48.852;9.936;2023-10-13T02:59:41;17.05;;;9.05;;
47960;SDS011;33721;48.852;9.936;2023-10-13T03:02:16;21.10;;;8.82;;
47960;SDS011;33721;48.852;9.936;2023-10-13T03:04:52;19.73;;;9.00;;
47960;SDS011;33721;48.852;9.936;2023-10-13T03:07:33;27.45;;;9.23;;
47960;SDS011;33721;48.852;9.936;2023-10-13T03:10:01;19.70;;;9.20;;
47960;SDS011;33721;48.852;9.936;2023-10-13T03:12:35;19.40;;;9.43;;
47960;SDS011;33721;48.852;9.936;2023-10-13T03:15:01;19.65;;;9.77;;
47960;SDS011;33721;48.852;9.936;2023-10-13T03:17:46;21.98;;;9.80;;
47960;SDS011;33721;48.852;9.936;2023-10-13T03:20:16;20.63;;;9.80;;
47960;SDS011;33721;48.852;9.936;2023-10-13T03:22:51;17.42;;;8.98;;
47960;SDS011;33721;48.852;9.936;2023-10-13T03:25:18;16.90;;;9.13;;
47960;SDS011;33721;48.852;9.936;2023-10-13T03:28:02;19.33;;;9.50;;
47960;SDS011;33721;48.852;9.936;2023-10-13T03:30:32;20.95;;;8.48;;
47960;SDS011;33721;48.852;9.936;2023-10-13T03:33:03;16.88;;;8.90;;
47960;SDS011;33721;48.852;9.936;2023-10-13T03:35:36;21.35;;;9.63;;
47960;SDS011;33721;48.852;9.936;2023-10-13T03:38:08;18.50;;;8.90;;
47960;SDS011;33721;48.852;9.936;2023-10-13T03:40:44;27.73;;;9.00;;
47960;SDS011;33721;48.852;9.936;2023-10-13T03:43:14;12.00;;;6.50;;
47960;SDS011;33721;48.852;9.936;2023-10-13T03:45:46;18.15;;;9.43;;
47960;SDS011;33721;48.852;9.936;2023-10-13T03:48:17;15.23;;;8.70;;
47960;SDS011;33721;48.852;9.936;2023-10-13T03:51:00;17.83;;;8.13;;
47960;SDS011;33721;48.852;9.936;2023-10-13T03:53:34;17.33;;;8.60;;
47960;SDS011;33721;48.852;9.936;2023-10-13T03:56:04;15.30;;;8.05;;
47960;SDS011;33721;48.852;9.936;2023-10-13T03:58:39;18.50;;;8.50;;
47960;SDS011;33721;48.852;9.936;2023-10-13T04:01:12;15.15;;;8.38;;
47960;SDS011;33721;48.852;9.936;2023-10-13T04:03:40;19.35;;;8.75;;
47960;SDS011;33721;48.852;9.936;2023-10-13T04:06:26;17.98;;;9.20;;
47960;SDS011;33721;48.852;9.936;2023-10-13T04:09:22;18.45;;;8.00;;
47960;SDS011;33721;48.852;9.936;2023-10-13T04:11:54;19.55;;;8.65;;
47960;SDS011;33721;48.852;9.936;2023-10-13T04:14:26;15.40;;;8.05;;
47960;SDS011;33721;48.852;9.936;2023-10-13T04:17:14;19.38;;;8.82;;
47960;SDS011;33721;48.852;9.936;2023-10-13T04:19:43;19.65;;;8.65;;
47960;SDS011;33721;48.852;9.936;2023-10-13T04:22:27;16.98;;;8.35;;
47960;SDS011;33721;48.852;9.936;2023-10-13T04:25:18;19.38;;;8.57;;
47960;SDS011;33721;48.852;9.936;2023-10-13T04:28:12;16.00;;;9.20;;
47960;SDS011;33721;48.852;9.936;2023-10-13T04:30:46;21.48;;;8.88;;
47960;SDS011;33721;48.852;9.936;2023-10-13T04:33:22;16.50;;;8.60;;
47960;SDS011;33721;48.852;9.936;2023-10-13T04:36:09;24.15;;;9.07;;
47960;SDS011;33721;48.852;9.936;2023-10-13T04:38:52;18.48;;;8.85;;
47960;SDS011;33721;48.852;9.936;2023-10-13T04:41:26;17.77;;;8.70;;
47960;SDS011;33721;48.852;9.936;2023-10-13T04:44:01;19.20;;;8.50;;
47960;SDS011;33721;48.852;9.936;2023-10-13T04:46:49;15.65;;;8.52;;
47960;SDS011;33721;48.852;9.936;2023-10-13T04:49:15;17.70;;;8.52;;
47960;SDS011;33721;48.852;9.936;2023-10-13T04:51:59;19.13;;;8.98;;
47960;SDS011;33721;48.852;9.936;2023-10-13T04:54:33;14.43;;;7.30;;
47960;SDS011;33721;48.852;9.936;2023-10-13T04:57:10;19.58;;;8.77;;
47960;SDS011;33721;48.852;9.936;2023-10-13T04:59:48;21.08;;;8.07;;
47960;SDS011;33721;48.852;9.936;2023-10-13T05:02:33;18.48;;;8.93;;
47960;SDS011;33721;48.852;9.936;2023-10-13T05:05:02;19.42;;;9.18;;
47960;SDS011;33721;48.852;9.936;2023-10-13T05:07:31;17.05;;;8.20;;
47960;SDS011;33721;48.852;9.936;2023-10-13T05:10:16;17.33;;;8.55;;
47960;SDS011;33721;48.852;9.936;2023-10-13T05:13:01;16.33;;;9.05;;
47960;SDS011;33721;48.852;9.936;2023-10-13T05:15:48;18.85;;;8.27;;
47960;SDS011;33721;48.852;9.936;2023-10-13T05:18:34;17.73;;;8.60;;
47960;SDS011;33721;48.852;9.936;2023-10-13T05:21:19;19.15;;;8.73;;
47960;SDS011;33721;48.852;9.936;2023-10-13T05:24:04;21.35;;;9.32;;
47960;SDS011;33721;48.852;9.936;2023-10-13T05:26:48;22.17;;;8.98;;
47960;SDS011;33721;48.852;9.936;2023-10-13T05:29:33;15.80;;;7.97;;
47960;SDS011;33721;48.852;9.936;2023-10-13T05:32:17;16.27;;;8.13;;
47960;SDS011;33721;48.852;9.936;2023-10-13T05:35:01;16.48;;;8.50;;
47960;SDS011;33721;48.852;9.936;2023-10-13T05:37:46;16.48;;;8.25;;
47960;SDS011;33721;48.852;9.936;2023-10-13T05:40:30;17.00;;;9.02;;
47960;SDS011;33721;48.852;9.936;2023-10-13T05:43:14;18.60;;;8.43;;
47960;SDS011;33721;48.852;9.936;2023-10-13T05:46:02;19.25;;;8.23;;
47960;SDS011;33721;48.852;9.936;2023-10-13T05:48:47;22.73;;;9.27;;
47960;SDS011;33721;48.852;9.936;2023-10-13T05:51:25;18.73;;;9.10;;
47960;SDS011;33721;48.852;9.936;2023-10-13T05:54:11;23.75;;;9.35;;
47960;SDS011;33721;48.852;9.936;2023-10-13T05:56:38;19.10;;;9.60;;
47960;SDS011;33721;48.852;9.936;2023-10-13T05:59:33;24.42;;;9.30;;
47960;SDS011;33721;48.852;9.936;2023-10-13T06:02:20;24.23;;;8.80;;
47960;SDS011;33721;48.852;9.936;2023-10-13T06:05:04;19.63;;;9.07;;
47960;SDS011;33721;48.852;9.936;2023-10-13T06:07:50;19.70;;;9.00;;
47960;SDS011;33721;48.852;9.936;2023-10-13T06:10:34;21.95;;;9.18;;
47960;SDS011;33721;48.852;9.936;2023-10-13T06:13:19;22.38;;;8.85;;
47960;SDS011;33721;48.852;9.936;2023-10-13T06:16:10;20.08;;;9.18;;
47960;SDS011;33721;48.852;9.936;2023-10-13T06:18:59;20.33;;;8.88;;
47960;SDS011;33721;48.852;9.936;2023-10-13T06:21:43;21.90;;;9.02;;
47960;SDS011;33721;48.852;9.936;2023-10-13T06:24:28;15.23;;;8.52;;
47960;SDS011;33721;48.852;9.936;2023-10-13T06:27:12;21.55;;;9.30;;
47960;SDS011;33721;48.852;9.936;2023-10-13T06:29:57;18.67;;;8.43;;
47960;SDS011;33721;48.852;9.936;2023-10-13T06:32:23;17.48;;;8.23;;
47960;SDS011;33721;48.852;9.936;2023-10-13T06:34:55;21.00;;;9.55;;
47960;SDS011;33721;48.852;9.936;2023-10-13T06:37:30;17.88;;;8.93;;
47960;SDS011;33721;48.852;9.936;2023-10-13T06:39:58;19.85;;;8.48;;
47960;SDS011;33721;48.852;9.936;2023-10-13T06:42:30;21.25;;;9.07;;
47960;SDS011;33721;48.852;9.936;2023-10-13T06:44:59;16.75;;;8.35;;
47960;SDS011;33721;48.852;9.936;2023-10-13T06:47:28;17.95;;;9.10;;
47960;SDS011;33721;48.852;9.936;2023-10-13T06:49:54;18.35;;;9.15;;
47960;SDS011;33721;48.852;9.936;2023-10-13T06:52:21;19.98;;;9.50;;
47960;SDS011;33721;48.852;9.936;2023-10-13T06:54:54;20.70;;;8.77;;
47960;SDS011;33721;48.852;9.936;2023-10-13T06:57:20;13.93;;;7.88;;
47960;SDS011;33721;48.852;9.936;2023-10-13T06:59:46;16.08;;;8.00;;
47960;SDS011;33721;48.852;9.936;2023-10-13T07:02:13;17.55;;;8.25;;
47960;SDS011;33721;48.852;9.936;2023-10-13T07:04:58;15.48;;;7.65;;
47960;SDS011;33721;48.852;9.936;2023-10-13T07:07:32;16.20;;;7.65;;
47960;SDS011;33721;48.852;9.936;2023-10-13T07:09:58;15.52;;;7.90;;
47960;SDS011;33721;48.852;9.936;2023-10-13T07:12:24;15.13;;;7.55;;
47960;SDS011;33721;48.852;9.936;2023-10-13T07:14:52;18.70;;;8.50;;
47960;SDS011;33721;48.852;9.936;2023-10-13T07:17:39;15.55;;;8.63;;
47960;SDS011;33721;48.852;9.936;2023-10-13T07:20:06;18.45;;;7.30;;
47960;SDS011;33721;48.852;9.936;2023-10-13T07:22:51;13.25;;;7.30;;
47960;SDS011;33721;48.852;9.936;2023-10-13T07:25:28;20.33;;;8.50;;
47960;SDS011;33721;48.852;9.936;2023-10-13T07:28:05;20.30;;;8.95;;
47960;SDS011;33721;48.852;9.936;2023-10-13T07:30:34;17.83;;;8.93;;
47960;SDS011;33721;48.852;9.936;2023-10-13T07:33:18;19.02;;;8.13;;
47960;SDS011;33721;48.852;9.936;2023-10-13T07:35:47;16.50;;;8.30;;
47960;SDS011;33721;48.852;9.936;2023-10-13T07:38:23;17.00;;;8.30;;
47960;SDS011;33721;48.852;9.936;2023-10-13T07:40:50;17.58;;;8.00;;
47960;SDS011;33721;48.852;9.936;2023-10-13T07:43:16;21.17;;;8.32;;
47960;SDS011;33721;48.852;9.936;2023-10-13T07:45:46;14.55;;;7.93;;
47960;SDS011;33721;48.852;9.936;2023-10-13T07:48:16;16.92;;;8.70;;
47960;SDS011;33721;48.852;9.936;2023-10-13T07:51:08;15.68;;;8.65;;
47960;SDS011;33721;48.852;9.936;2023-10-13T07:53:52;21.27;;;9.30;;
47960;SDS011;33721;48.852;9.936;2023-10-13T07:56:18;19.23;;;8.60;;
47960;SDS011;33721;48.852;9.936;2023-10-13T07:58:44;20.80;;;9.20;;
47960;SDS011;33721;48.852;9.936;2023-10-13T08:01:25;26.60;;;9.63;;
47960;SDS011;33721;48.852;9.936;2023-10-13T08:03:51;16.05;;;8.73;;
47960;SDS011;33721;48.852;9.936;2023-10-13T08:06:29;24.10;;;9.10;;
47960;SDS011;33721;48.852;9.936;2023-10-13T08:08:55;15.50;;;8.38;;
47960;SDS011;33721;48.852;9.936;2023-10-13T08:11:32;19.85;;;8.38;;
47960;SDS011;33721;48.852;9.936;2023-10-13T08:14:05;15.00;;;7.60;;
47960;SDS011;33721;48.852;9.936;2023-10-13T08:16:47;18.75;;;8.38;;
47960;SDS011;33721;48.852;9.936;2023-10-13T08:19:22;16.27;;;8.93;;
47960;SDS011;33721;48.852;9.936;2023-10-13T08:22:09;17.17;;;7.95;;
47960;SDS011;33721;48.852;9.936;2023-10-13T08:24:49;13.55;;;8.07;;
47960;SDS011;33721;48.852;9.936;2023-10-13T08:27:18;18.27;;;8.65;;
47960;SDS011;33721;48.852;9.936;2023-10-13T08:30:13;23.67;;;8.52;;
47960;SDS011;33721;48.852;9.936;2023-10-13T08:33:01;16.50;;;7.97;;
47960;SDS011;33721;48.852;9.936;2023-10-13T08:35:41;19.15;;;7.35;;
47960;SDS011;33721;48.852;9.936;2023-10-13T08:38:19;19.90;;;8.10;;
47960;SDS011;33721;48.852;9.936;2023-10-13T08:40:53;16.42;;;7.65;;
47960;SDS011;33721;48.852;9.936;2023-10-13T08:43:42;15.85;;;7.05;;
47960;SDS011;33721;48.852;9.936;2023-10-13T08:46:10;14.60;;;6.93;;
47960;SDS011;33721;48.852;9.936;2023-10-13T08:48:51;17.80;;;5.72;;
47960;SDS011;33721;48.852;9.936;2023-10-13T08:51:29;13.35;;;6.10;;
47960;SDS011;33721;48.852;9.936;2023-10-13T08:54:09;13.17;;;6.50;;
47960;SDS011;33721;48.852;9.936;2023-10-13T08:56:59;16.00;;;6.82;;
47960;SDS011;33721;48.852;9.936;2023-10-13T08:59:32;16.65;;;5.10;;
47960;SDS011;33721;48.852;9.936;2023-10-13T09:02:18;16.58;;;6.65;;
47960;SDS011;33721;48.852;9.936;2023-10-13T09:04:47;18.38;;;5.38;;
47960;SDS011;33721;48.852;9.936;2023-10-13T09:07:24;18.13;;;5.63;;
47960;SDS011;33721;48.852;9.936;2023-10-13T09:09:50;12.52;;;5.00;;
47960;SDS011;33721;48.852;9.936;2023-10-13T09:14:55;16.45;;;5.32;;
47960;SDS011;33721;48.852;9.936;2023-10-13T09:17:30;18.65;;;5.55;;
47960;SDS011;33721;48.852;9.936;2023-10-13T09:20:01;18.48;;;5.32;;
47960;SDS011;33721;48.852;9.936;2023-10-13T09:22:55;13.65;;;4.63;;
47960;SDS011;33721;48.852;9.936;2023-10-13T09:25:28;14.73;;;4.95;;
47960;SDS011;33721;48.852;9.936;2023-10-13T09:28:10;15.65;;;4.15;;
47960;SDS011;33721;48.852;9.936;2023-10-13T09:30:47;11.35;;;4.65;;
47960;SDS011;33721;48.852;9.936;2023-10-13T09:33:25;15.18;;;4.38;;
47960;SDS011;33721;48.852;9.936;2023-10-13T09:35:58;18.55;;;4.53;;
47960;SDS011;33721;48.852;9.936;2023-10-13T09:38:25;9.50;;;3.88;;
47960;SDS011;33721;48.852;9.936;2023-10-13T09:40:52;26.05;;;4.72;;
47960;SDS011;33721;48.852;9.936;2023-10-13T09:43:22;10.57;;;3.55;;
47960;SDS011;33721;48.852;9.936;2023-10-13T09:45:50;10.75;;;3.72;;
47960;SDS011;33721;48.852;9.936;2023-10-13T09:48:42;16.00;;;4.38;;
47960;SDS011;33721;48.852;9.936;2023-10-13T09:51:12;16.83;;;4.07;;
47960;SDS011;33721;48.852;9.936;2023-10-13T09:53:55;16.55;;;4.00;;
47960;SDS011;33721;48.852;9.936;2023-10-13T09:56:28;16.35;;;4.38;;
47960;SDS011;33721;48.852;9.936;2023-10-13T09:59:09;13.57;;;3.35;;
47960;SDS011;33721;48.852;9.936;2023-10-13T10:01:40;14.13;;;3.30;;
47960;SDS011;33721;48.852;9.936;2023-10-13T10:04:15;16.55;;;4.13;;
47960;SDS011;33721;48.852;9.936;2023-10-13T10:09:30;12.32;;;3.45;;
47960;SDS011;33721;48.852;9.936;2023-10-13T10:17:41;13.23;;;3.15;;
47960;SDS011;33721;48.852;9.936;2023-10-13T10:20:08;13.35;;;4.10;;
47960;SDS011;33721;48.852;9.936;2023-10-13T10:22:55;13.75;;;3.90;;
47960;SDS011;33721;48.852;9.936;2023-10-13T10:25:31;7.25;;;3.28;;
47960;SDS011;33721;48.852;9.936;2023-10-13T10:28:01;10.95;;;3.65;;
47960;SDS011;33721;48.852;9.936;2023-10-13T10:30:32;12.20;;;3.67;;
47960;SDS011;33721;48.852;9.936;2023-10-13T10:33:00;13.50;;;3.63;;
47960;SDS011;33721;48.852;9.936;2023-10-13T10:35:43;9.20;;;3.83;;
47960;SDS011;33721;48.852;9.936;2023-10-13T10:38:11;11.10;;;3.58;;
47960;SDS011;33721;48.852;9.936;2023-10-13T10:41:01;12.05;;;3.50;;
47960;SDS011;33721;48.852;9.936;2023-10-13T10:46:12;10.68;;;3.45;;
47960;SDS011;33721;48.852;9.936;2023-10-13T10:48:43;9.55;;;3.78;;
47960;SDS011;33721;48.852;9.936;2023-10-13T10:51:09;10.30;;;3.55;;
47960;SDS011;33721;48.852;9.936;2023-10-13T10:53:51;12.35;;;3.67;;
47960;SDS011;33721;48.852;9.936;2023-10-13T10:56:24;12.00;;;3.72;;
47960;SDS011;33721;48.852;9.936;2023-10-13T10:59:02;10.98;;;4.00;;
47960;SDS011;33721;48.852;9.936;2023-10-13T11:01:30;14.60;;;4.15;;
47960;SDS011;33721;48.852;9.936;2023-10-13T11:06:37;11.98;;;3.50;;
47960;SDS011;33721;48.852;9.936;2023-10-13T11:09:10;14.00;;;3.38;;
47960;SDS011;33721;48.852;9.936;2023-10-13T11:14:31;12.20;;;4.00;;
47960;SDS011;33721;48.852;9.936;2023-10-13T11:16:57;12.35;;;3.83;;
47960;SDS011;33721;48.852;9.936;2023-10-13T11:22:12;12.32;;;3.95;;
47960;SDS011;33721;48.852;9.936;2023-10-13T11:25:00;11.63;;;3.92;;
47960;SDS011;33721;48.852;9.936;2023-10-13T11:27:36;7.57;;;3.60;;
47960;SDS011;33721;48.852;9.936;2023-10-13T11:30:15;12.40;;;3.28;;
47960;SDS011;33721;48.852;9.936;2023-10-13T11:32:56;14.13;;;4.30;;
47960;SDS011;33721;48.852;9.936;2023-10-13T11:35:26;15.43;;;3.80;;
47960;SDS011;33721;48.852;9.936;2023-10-13T11:38:11;13.25;;;3.95;;
47960;SDS011;33721;48.852;9.936;2023-10-13T11:40:39;16.52;;;4.35;;
47960;SDS011;33721;48.852;9.936;2023-10-13T11:43:31;18.10;;;4.00;;
47960;SDS011;33721;48.852;9.936;2023-10-13T11:46:01;11.75;;;3.67;;
47960;SDS011;33721;48.852;9.936;2023-10-13T11:48:36;9.73;;;4.05;;
47960;SDS011;33721;48.852;9.936;2023-10-13T11:51:02;12.18;;;3.78;;
47960;SDS011;33721;48.852;9.936;2023-10-13T11:53:32;14.35;;;3.92;;
47960;SDS011;33721;48.852;9.936;2023-10-13T11:56:02;11.10;;;3.55;;
47960;SDS011;33721;48.852;9.936;2023-10-13T11:58:38;11.27;;;3.92;;
47960;SDS011;33721;48.852;9.936;2023-10-13T12:01:04;13.15;;;3.88;;
47960;SDS011;33721;48.852;9.936;2023-10-13T12:03:33;8.52;;;3.75;;
47960;SDS011;33721;48.852;9.936;2023-10-13T12:06:17;13.93;;;4.55;;
47960;SDS011;33721;48.852;9.936;2023-10-13T12:09:05;12.45;;;4.00;;
47960;SDS011;33721;48.852;9.936;2023-10-13T12:11:41;9.55;;;3.63;;
47960;SDS011;33721;48.852;9.936;2023-10-13T12:14:07;11.85;;;3.50;;
47960;SDS011;33721;48.852;9.936;2023-10-13T12:16:42;9.88;;;3.92;;
47960;SDS011;33721;48.852;9.936;2023-10-13T12:19:16;11.73;;;3.90;;
47960;SDS011;33721;48.852;9.936;2023-10-13T12:21:48;11.45;;;3.80;;
47960;SDS011;33721;48.852;9.936;2023-10-13T12:24:20;10.48;;;4.78;;
47960;SDS011;33721;48.852;9.936;2023-10-13T12:27:08;14.73;;;3.97;;
47960;SDS011;33721;48.852;9.936;2023-10-13T12:29:51;18.20;;;4.20;;
47960;SDS011;33721;48.852;9.936;2023-10-13T12:32:18;10.10;;;3.83;;
47960;SDS011;33721;48.852;9.936;2023-10-13T12:34:50;10.45;;;3.90;;
47960;SDS011;33721;48.852;9.936;2023-10-13T12:37:25;12.30;;;3.85;;
47960;SDS011;33721;48.852;9.936;2023-10-13T12:42:48;7.57;;;3.90;;
47960;SDS011;33721;48.852;9.936;2023-10-13T12:45:32;11.95;;;3.83;;
47960;SDS011;33721;48.852;9.936;2023-10-13T12:48:16;13.15;;;3.70;;
47960;SDS011;33721;48.852;9.936;2023-10-13T12:51:01;11.60;;;4.25;;
47960;SDS011;33721;48.852;9.936;2023-10-13T12:53:45;11.65;;;3.78;;
47960;SDS011;33721;48.852;9.936;2023-10-13T12:56:14;17.40;;;4.60;;
47960;SDS011;33721;48.852;9.936;2023-10-13T12:58:41;15.68;;;3.97;;
47960;SDS011;33721;48.852;9.936;2023-10-13T13:01:07;8.52;;;4.10;;
47960;SDS011;33721;48.852;9.936;2023-10-13T13:03:33;14.73;;;3.78;;
47960;SDS011;33721;48.852;9.936;2023-10-13T13:05:59;19.50;;;4.10;;
47960;SDS011;33721;48.852;9.936;2023-10-13T13:08:32;12.73;;;4.13;;
47960;SDS011;33721;48.852;9.936;2023-10-13T13:11:00;13.70;;;4.20;;
47960;SDS011;33721;48.852;9.936;2023-10-13T13:13:26;10.02;;;3.65;;
47960;SDS011;33721;48.852;9.936;2023-10-13T13:15:52;15.73;;;3.92;;
47960;SDS011;33721;48.852;9.936;2023-10-13T13:18:18;10.18;;;3.60;;
47960;SDS011;33721;48.852;9.936;2023-10-13T13:20:44;12.38;;;3.92;;
47960;SDS011;33721;48.852;9.936;2023-10-13T13:23:19;10.48;;;3.63;;
47960;SDS011;33721;48.852;9.936;2023-10-13T13:25:46;10.48;;;3.35;;
47960;SDS011;33721;48.852;9.936;2023-10-13T13:28:12;11.25;;;3.88;;
47960;SDS011;33721;48.852;9.936;2023-10-13T13:30:43;10.85;;;4.03;;
47960;SDS011;33721;48.852;9.936;2023-10-13T13:33:09;10.93;;;3.45;;
47960;SDS011;33721;48.852;9.936;2023-10-13T13:35:36;15.27;;;4.07;;
47960;SDS011;33721;48.852;9.936;2023-10-13T13:38:07;10.50;;;4.18;;
47960;SDS011;33721;48.852;9.936;2023-10-13T13:40:52;12.48;;;4.47;;
47960;SDS011;33721;48.852;9.936;2023-10-13T13:43:19;15.38;;;4.03;;
47960;SDS011;33721;48.852;9.936;2023-10-13T13:46:15;13.65;;;5.25;;
47960;SDS011;33721;48.852;9.936;2023-10-13T13:48:42;12.07;;;4.50;;
47960;SDS011;33721;48.852;9.936;2023-10-13T13:51:08;8.40;;;3.85;;
47960;SDS011;33721;48.852;9.936;2023-10-13T13:53:43;12.52;;;3.50;;
47960;SDS011;33721;48.852;9.936;2023-10-13T13:56:15;14.43;;;5.65;;
47960;SDS011;33721;48.852;9.936;2023-10-13T13:58:44;10.80;;;3.40;;
47960;SDS011;33721;48.852;9.936;2023-10-13T14:01:11;21.05;;;5.15;;
47960;SDS011;33721;48.852;9.936;2023-10-13T14:03:44;10.43;;;6.90;;
47960;SDS011;33721;48.852;9.936;2023-10-13T14:06:12;18.30;;;3.95;;
47960;SDS011;33721;48.852;9.936;2023-10-13T14:08:42;13.32;;;3.70;;
47960;SDS011;33721;48.852;9.936;2023-10-13T14:11:09;18.70;;;3.90;;
47960;SDS011;33721;48.852;9.936;2023-10-13T14:13:39;14.73;;;4.00;;
47960;SDS011;33721;48.852;9.936;2023-10-13T14:16:21;14.10;;;4.03;;
47960;SDS011;33721;48.852;9.936;2023-10-13T14:18:48;11.57;;;3.72;;
47960;SDS011;33721;48.852;9.936;2023-10-13T14:21:16;15.52;;;3.78;;
47960;SDS011;33721;48.852;9.936;2023-10-13T14:23:45;10.52;;;3.90;;
47960;SDS011;33721;48.852;9.936;2023-10-13T14:26:14;13.27;;;3.88;;
47960;SDS011;33721;48.852;9.936;2023-10-13T14:28:45;11.35;;;3.60;;
47960;SDS011;33721;48.852;9.936;2023-10-13T14:33:51;8.95;;;3.97;;
47960;SDS011;33721;48.852;9.936;2023-10-13T14:36:18;8.60;;;4.18;;
47960;SDS011;33721;48.852;9.936;2023-10-13T14:38:45;11.07;;;3.58;;
47960;SDS011;33721;48.852;9.936;2023-10-13T14:41:14;15.95;;;4.15;;
47960;SDS011;33721;48.852;9.936;2023-10-13T14:43:44;11.40;;;4.00;;
47960;SDS011;33721;48.852;9.936;2023-10-13T14:46:19;10.55;;;3.72;;
47960;SDS011;33721;48.852;9.936;2023-10-13T14:48:48;5.63;;;3.33;;
47960;SDS011;33721;48.852;9.936;2023-10-13T14:51:17;14.38;;;4.10;;
47960;SDS011;33721;48.852;9.936;2023-10-13T14:53:44;14.02;;;3.85;;
47960;SDS011;33721;48.852;9.936;2023-10-13T14:56:13;10.23;;;3.78;;
47960;SDS011;33721;48.852;9.936;2023-10-13T14:58:40;12.32;;;4.03;;
47960;SDS011;33721;48.852;9.936;2023-10-13T15:01:12;10.60;;;4.00;;
47960;SDS011;33721;48.852;9.936;2023-10-13T15:03:44;13.70;;;4.10;;
47960;SDS011;33721;48.852;9.936;2023-10-13T15:06:17;11.45;;;3.92;;
47960;SDS011;33721;48.852;9.936;2023-10-13T15:08:44;18.17;;;4.10;;
47960;SDS011;33721;48.852;9.936;2023-10-13T15:11:14;13.07;;;3.63;;
47960;SDS011;33721;48.852;9.936;2023-10-13T15:13:42;12.05;;;4.10;;
47960;SDS011;33721;48.852;9.936;2023-10-13T15:16:17;13.73;;;3.65;;
47960;SDS011;33721;48.852;9.936;2023-10-13T15:18:48;20.33;;;3.80;;
47960;SDS011;33721;48.852;9.936;2023-10-13T15:21:23;11.10;;;3.75;;
47960;SDS011;33721;48.852;9.936;2023-10-13T15:23:53;15.00;;;4.20;;
47960;SDS011;33721;48.852;9.936;2023-10-13T15:26:24;10.65;;;3.90;;
47960;SDS011;33721;48.852;9.936;2023-10-13T15:28:50;9.02;;;4.05;;
47960;SDS011;33721;48.852;9.936;2023-10-13T15:33:59;11.60;;;3.67;;
47960;SDS011;33721;48.852;9.936;2023-10-13T15:36:26;10.85;;;3.85;;
47960;SDS011;33721;48.852;9.936;2023-10-13T15:38:52;13.13;;;4.15;;
47960;SDS011;33721;48.852;9.936;2023-10-13T15:41:25;10.82;;;3.80;;
47960;SDS011;33721;48.852;9.936;2023-10-13T15:43:51;14.45;;;4.20;;